Time;durP1;ratioP1;P1;durP2;ratioP2;P2;SDS_P1;SDS_P2;PMS_P1;PMS_P2;Temp;Humidity;BMP_temperature;BMP_pressure;BME280_temperature;BME280_humidity;BME280_pressure;Samples;Min_cycle;Max_cycle;Signal;HPM_P1;HPM_P2
2021/07/15 00:01:57;;;;;;;0.10;0.10;;;;;;;;;;10339636;28;20054;-22
2021/07/15 00:07:02;;;;;;;0.10;0.10;;;;;;;;;;10342718;28;20092;-22
2021/07/15 00:12:06;;;;;;;0.10;0.10;;;;;;;;;;10348612;28;20044;-22
2021/07/15 00:17:09;;;;;;;0.10;0.10;;;;;;;;;;10345359;28;20049;-22
2021/07/15 00:22:13;;;;;;;0.05;0.05;;;;;;;;;;10341144;28;20491;-21
2021/07/15 00:27:15;;;;;;;0.00;0.00;;;;;;;;;;10351020;28;20046;-21
2021/07/15 00:32:18;;;;;;;0.10;0.10;;;;;;;;;;10340439;28;20058;-22
2021/07/15 00:37:23;;;;;;;0.00;0.00;;;;;;;;;;10341516;28;20061;-22
2021/07/15 00:42:25;;;;;;;0.10;0.10;;;;;;;;;;10003496;28;10000669;-22
2021/07/15 00:47:28;;;;;;;0.10;0.10;;;;;;;;;;10351435;28;20058;-22
2021/07/15 00:52:32;;;;;;;0.10;0.10;;;;;;;;;;10353114;28;20136;-22
2021/07/15 00:57:35;;;;;;;0.10;0.10;;;;;;;;;;10358344;28;20053;-21
2021/07/15 01:02:38;;;;;;;0.10;0.10;;;;;;;;;;10342588;28;20046;-21
2021/07/15 01:07:42;;;;;;;0.10;0.10;;;;;;;;;;10345809;28;20117;-22
2021/07/15 01:12:53;;;;;;;0.10;0.10;;;;;;;;;;10340049;28;20046;-23
2021/07/15 01:17:59;;;;;;;0.63;0.10;;;;;;;;;;10340987;28;20049;-22
2021/07/15 01:23:15;;;;;;;0.20;0.10;;;;;;;;;;10340696;28;20041;-22
2021/07/15 01:28:21;;;;;;;0.10;0.10;;;;;;;;;;10348062;28;20100;-21
2021/07/15 01:33:28;;;;;;;0.57;0.20;;;;;;;;;;10351877;28;20050;-21
2021/07/15 01:38:32;;;;;;;0.10;0.10;;;;;;;;;;10344684;28;20048;-22
2021/07/15 01:43:36;;;;;;;0.10;0.10;;;;;;;;;;10346538;28;20056;-22
2021/07/15 01:48:42;;;;;;;0.20;0.20;;;;;;;;;;10352551;28;20042;-21
2021/07/15 01:53:44;;;;;;;0.10;0.10;;;;;;;;;;10346796;28;20050;-22
2021/07/15 01:58:49;;;;;;;0.10;0.10;;;;;;;;;;10352737;28;20049;-21
2021/07/15 02:03:55;;;;;;;0.10;0.10;;;;;;;;;;10348322;28;20054;-22
2021/07/15 02:08:59;;;;;;;0.70;0.10;;;;;;;;;;10347189;28;20887;-22
2021/07/15 02:14:04;;;;;;;0.10;0.10;;;;;;;;;;10343693;28;20042;-22
2021/07/15 02:19:08;;;;;;;0.10;0.10;;;;;;;;;;10349573;28;20050;-22
2021/07/15 02:24:12;;;;;;;0.35;0.10;;;;;;;;;;10346531;28;20034;-22
2021/07/15 02:29:15;;;;;;;0.10;0.10;;;;;;;;;;10347956;28;20054;-22
2021/07/15 02:34:21;;;;;;;0.50;0.20;;;;;;;;;;10348010;28;20047;-22
2021/07/15 02:39:24;;;;;;;0.15;0.15;;;;;;;;;;10346623;28;20403;-22
2021/07/15 02:44:26;;;;;;;0.10;0.10;;;;;;;;;;10342662;28;20049;-22
2021/07/15 02:49:31;;;;;;;0.10;0.10;;;;;;;;;;10347650;28;20404;-22
2021/07/15 02:54:34;;;;;;;0.10;0.10;;;;;;;;;;10346434;28;20049;-22
2021/07/15 02:59:40;;;;;;;0.10;0.10;;;;;;;;;;10354342;28;20407;-22
2021/07/15 03:04:48;;;;;;;0.17;0.10;;;;;;;;;;10341835;28;20053;-22
2021/07/15 03:09:53;;;;;;;0.10;0.10;;;;;;;;;;10342125;28;20050;-21
2021/07/15 03:14:56;;;;;;;0.20;0.20;;;;;;;;;;10341613;28;20506;-21
2021/07/15 03:20:01;;;;;;;0.13;0.13;;;;;;;;;;10352477;28;20053;-21
2021/07/15 03:25:05;;;;;;;0.30;0.30;;;;;;;;;;10346743;28;20053;-21
2021/07/15 03:30:09;;;;;;;0.25;0.25;;;;;;;;;;10344117;28;20161;-20
2021/07/15 03:35:14;;;;;;;0.15;0.15;;;;;;;;;;10351805;28;20042;-20
2021/07/15 03:40:18;;;;;;;0.20;0.20;;;;;;;;;;10357260;28;20077;-20
2021/07/15 03:45:22;;;;;;;0.32;0.20;;;;;;;;;;10340058;28;20125;-21
2021/07/15 03:50:27;;;;;;;0.20;0.20;;;;;;;;;;10343338;28;20463;-21
2021/07/15 03:55:32;;;;;;;0.10;0.10;;;;;;;;;;10337143;28;20046;-20
2021/07/15 04:00:37;;;;;;;0.30;0.28;;;;;;;;;;10340269;28;20589;-21
2021/07/15 04:05:46;;;;;;;0.30;0.30;;;;;;;;;;10345298;28;20491;-21
2021/07/15 04:10:56;;;;;;;0.20;0.20;;;;;;;;;;10343461;28;20503;-20
2021/07/15 04:16:14;;;;;;;0.30;0.30;;;;;;;;;;10332750;28;20693;-21
2021/07/15 04:21:19;;;;;;;0.95;0.38;;;;;;;;;;10338957;28;20815;-21
2021/07/15 04:26:22;;;;;;;0.55;0.30;;;;;;;;;;10344217;28;20048;-21
2021/07/15 04:31:28;;;;;;;0.25;0.25;;;;;;;;;;10336383;28;20049;-20
2021/07/15 04:36:33;;;;;;;0.95;0.30;;;;;;;;;;10342250;28;20550;-21
2021/07/15 04:41:37;;;;;;;0.40;0.25;;;;;;;;;;10344119;28;20050;-21
2021/07/15 04:46:39;;;;;;;1.15;0.40;;;;;;;;;;10338234;28;20048;-21
2021/07/15 04:51:44;;;;;;;0.73;0.30;;;;;;;;;;10336407;28;20041;-21
2021/07/15 04:56:47;;;;;;;0.40;0.25;;;;;;;;;;10339378;28;20044;-21
2021/07/15 05:01:51;;;;;;;0.63;0.30;;;;;;;;;;10341982;28;20037;-21
2021/07/15 05:06:56;;;;;;;0.32;0.30;;;;;;;;;;10341650;28;20053;-21
2021/07/15 05:11:58;;;;;;;0.20;0.20;;;;;;;;;;10345128;28;20173;-21
2021/07/15 05:17:01;;;;;;;0.20;0.20;;;;;;;;;;10345199;28;20046;-21
2021/07/15 05:22:06;;;;;;;0.30;0.30;;;;;;;;;;10341150;28;20137;-21
2021/07/15 05:27:08;;;;;;;0.30;0.30;;;;;;;;;;10347016;28;20042;-21
2021/07/15 05:32:11;;;;;;;0.57;0.43;;;;;;;;;;10342801;28;20053;-21
2021/07/15 05:37:15;;;;;;;0.30;0.30;;;;;;;;;;10343795;28;20054;-21
2021/07/15 05:42:18;;;;;;;0.30;0.30;;;;;;;;;;10345426;28;20074;-21
2021/07/15 05:47:20;;;;;;;1.27;0.60;;;;;;;;;;10352566;28;20507;-22
2021/07/15 05:52:24;;;;;;;0.30;0.30;;;;;;;;;;10345497;28;20495;-21
2021/07/15 05:57:27;;;;;;;0.30;0.30;;;;;;;;;;10347704;28;20042;-21
2021/07/15 06:02:30;;;;;;;0.30;0.20;;;;;;;;;;10349966;28;20117;-21
2021/07/15 06:07:35;;;;;;;0.30;0.30;;;;;;;;;;10346809;28;20463;-21
2021/07/15 06:12:38;;;;;;;0.32;0.30;;;;;;;;;;10349399;28;20038;-21
2021/07/15 06:17:41;;;;;;;2.20;0.40;;;;;;;;;;10354875;28;20502;-21
2021/07/15 06:22:45;;;;;;;0.30;0.30;;;;;;;;;;10354121;28;20040;-21
2021/07/15 06:27:48;;;;;;;0.20;0.20;;;;;;;;;;10342360;28;20048;-21
2021/07/15 06:32:50;;;;;;;0.95;0.35;;;;;;;;;;10344882;28;20460;-21
2021/07/15 06:37:55;;;;;;;0.30;0.30;;;;;;;;;;10349066;28;20057;-21
2021/07/15 06:42:57;;;;;;;0.20;0.20;;;;;;;;;;10344272;28;20046;-21
2021/07/15 06:48:01;;;;;;;0.30;0.30;;;;;;;;;;10338449;28;20072;-22
2021/07/15 06:53:05;;;;;;;0.30;0.30;;;;;;;;;;10340896;28;20053;-21
2021/07/15 06:58:08;;;;;;;0.20;0.20;;;;;;;;;;10340840;28;20045;-21
2021/07/15 07:03:12;;;;;;;0.45;0.13;;;;;;;;;;10337713;28;20056;-21
2021/07/15 07:08:17;;;;;;;0.30;0.30;;;;;;;;;;10342044;28;20054;-21
2021/07/15 07:13:20;;;;;;;0.47;0.40;;;;;;;;;;10337391;28;20381;-21
2021/07/15 07:18:22;;;;;;;0.20;0.20;;;;;;;;;;10341637;28;20066;-21
2021/07/15 07:23:27;;;;;;;0.95;0.60;;;;;;;;;;10344668;28;21298;-21
2021/07/15 07:28:29;;;;;;;0.40;0.30;;;;;;;;;;10341843;28;20045;-21
2021/07/15 07:33:32;;;;;;;0.40;0.35;;;;;;;;;;10338796;28;20380;-21
2021/07/15 07:38:36;;;;;;;0.25;0.20;;;;;;;;;;10340926;28;20071;-21
2021/07/15 07:43:39;;;;;;;0.20;0.20;;;;;;;;;;10341001;28;20034;-21
2021/07/15 07:48:42;;;;;;;0.20;0.20;;;;;;;;;;10342475;28;20144;-21
2021/07/15 07:53:48;;;;;;;0.32;0.10;;;;;;;;;;10347984;28;20064;-21
2021/07/15 07:58:51;;;;;;;0.22;0.10;;;;;;;;;;10339572;28;20475;-21
2021/07/15 08:03:54;;;;;;;0.10;0.10;;;;;;;;;;10330303;28;20483;-21
2021/07/15 08:08:58;;;;;;;0.20;0.20;;;;;;;;;;10341181;28;20043;-21
2021/07/15 08:14:01;;;;;;;0.20;0.20;;;;;;;;;;10342276;28;20129;-22
2021/07/15 08:19:04;;;;;;;0.20;0.20;;;;;;;;;;10347735;28;20049;-22
2021/07/15 08:24:08;;;;;;;0.10;0.10;;;;;;;;;;10353093;28;20053;-22
2021/07/15 08:29:10;;;;;;;0.10;0.10;;;;;;;;;;10343271;28;20054;-22
2021/07/15 08:34:13;;;;;;;0.95;0.10;;;;;;;;;;10335173;28;20049;-22
2021/07/15 08:39:17;;;;;;;0.22;0.10;;;;;;;;;;10336126;28;20041;-22
2021/07/15 08:44:20;;;;;;;0.65;0.10;;;;;;;;;;10342923;28;20048;-22
2021/07/15 08:49:22;;;;;;;0.00;0.00;;;;;;;;;;10342057;28;20060;-22
2021/07/15 08:54:34;;;;;;;0.52;0.00;;;;;;;;;;10340324;28;20049;-22
2021/07/15 08:59:37;;;;;;;0.20;0.00;;;;;;;;;;10339307;28;20046;-23
2021/07/15 09:04:39;;;;;;;0.10;0.10;;;;;;;;;;10334418;28;20041;-22
2021/07/15 09:09:45;;;;;;;0.10;0.10;;;;;;;;;;10340715;28;20049;-22
2021/07/15 09:14:48;;;;;;;0.10;0.05;;;;;;;;;;10339699;28;20106;-22
2021/07/15 09:19:51;;;;;;;0.10;0.10;;;;;;;;;;10341880;28;20074;-22
2021/07/15 09:24:59;;;;;;;0.17;0.10;;;;;;;;;;10341732;28;20076;-22
2021/07/15 09:30:05;;;;;;;0.10;0.10;;;;;;;;;;10340599;28;20529;-22
2021/07/15 09:35:08;;;;;;;0.00;0.00;;;;;;;;;;10342497;28;20053;-22
2021/07/15 09:40:13;;;;;;;0.00;0.00;;;;;;;;;;10346461;28;20037;-23
2021/07/15 09:45:15;;;;;;;0.00;0.00;;;;;;;;;;10339435;28;20052;-22
2021/07/15 09:50:26;;;;;;;0.00;0.00;;;;;;;;;;10342114;28;20152;-22
2021/07/15 09:55:30;;;;;;;0.10;0.05;;;;;;;;;;10352765;28;20113;-22
2021/07/15 10:00:33;;;;;;;0.10;0.10;;;;;;;;;;10346666;28;20772;-22
2021/07/15 10:05:36;;;;;;;0.10;0.10;;;;;;;;;;10346605;28;20041;-23
2021/07/15 10:10:41;;;;;;;0.10;0.10;;;;;;;;;;10356261;28;20104;-22
2021/07/15 10:15:44;;;;;;;0.10;0.10;;;;;;;;;;10345881;28;20476;-22
2021/07/15 10:20:53;;;;;;;0.00;0.00;;;;;;;;;;10354792;28;20497;-22
2021/07/15 10:25:57;;;;;;;0.20;0.08;;;;;;;;;;10357829;28;20048;-22
2021/07/15 10:31:01;;;;;;;0.00;0.00;;;;;;;;;;10359281;28;20049;-21
2021/07/15 10:36:05;;;;;;;0.28;0.10;;;;;;;;;;10359419;28;20479;-22
2021/07/15 10:41:10;;;;;;;0.00;0.00;;;;;;;;;;10356528;28;20058;-23
2021/07/15 10:46:13;;;;;;;0.20;0.10;;;;;;;;;;10346715;28;20044;-23
2021/07/15 10:51:16;;;;;;;0.45;0.08;;;;;;;;;;10341171;28;20070;-21
2021/07/15 10:56:21;;;;;;;0.10;0.08;;;;;;;;;;10345578;28;20854;-22
2021/07/15 11:01:38;;;;;;;0.10;0.10;;;;;;;;;;10344357;28;20427;-22
2021/07/15 11:06:42;;;;;;;0.08;0.08;;;;;;;;;;10343688;28;20153;-22
2021/07/15 11:11:46;;;;;;;0.30;0.10;;;;;;;;;;10342181;28;20046;-23
2021/07/15 11:16:52;;;;;;;0.45;0.10;;;;;;;;;;10342269;28;20038;-22
2021/07/15 11:21:57;;;;;;;0.10;0.10;;;;;;;;;;10346818;28;20070;-22
2021/07/15 11:27:21;;;;;;;0.17;0.10;;;;;;;;;;10347065;28;20042;-22
2021/07/15 11:32:28;;;;;;;0.10;0.10;;;;;;;;;;10342783;28;20058;-22
2021/07/15 11:37:41;;;;;;;0.30;0.10;;;;;;;;;;10344849;28;20050;-22
2021/07/15 11:42:46;;;;;;;0.28;0.10;;;;;;;;;;10347730;28;20132;-22
2021/07/15 11:47:50;;;;;;;0.20;0.20;;;;;;;;;;10344503;28;20040;-22
2021/07/15 11:53:08;;;;;;;0.20;0.20;;;;;;;;;;10348795;28;20380;-22
2021/07/15 11:58:26;;;;;;;0.43;0.13;;;;;;;;;;10347984;28;20060;-22
2021/07/15 12:03:30;;;;;;;0.38;0.20;;;;;;;;;;10337513;28;20076;-22
2021/07/15 12:08:37;;;;;;;0.20;0.20;;;;;;;;;;10353747;28;20100;-22
2021/07/15 12:13:40;;;;;;;0.10;0.10;;;;;;;;;;10346513;28;20053;-22
2021/07/15 12:18:44;;;;;;;0.10;0.10;;;;;;;;;;10348308;28;20042;-22
2021/07/15 12:23:49;;;;;;;0.10;0.10;;;;;;;;;;10343273;28;20062;-22
2021/07/15 12:28:52;;;;;;;0.38;0.20;;;;;;;;;;10343383;28;20112;-23
2021/07/15 12:34:02;;;;;;;0.17;0.17;;;;;;;;;;10348319;28;20053;-22
2021/07/15 12:39:05;;;;;;;0.55;0.20;;;;;;;;;;10351658;28;20132;-22
2021/07/15 12:44:11;;;;;;;0.22;0.10;;;;;;;;;;10351065;28;20120;-22
2021/07/15 12:49:16;;;;;;;0.95;0.20;;;;;;;;;;10345125;28;20438;-22
2021/07/15 12:54:28;;;;;;;0.20;0.20;;;;;;;;;;10350651;28;20038;-22
2021/07/15 12:59:30;;;;;;;;;;;;;;;;;;10343285;28;20060;-22
2021/07/15 13:04:54;;;;;;;0.10;0.10;;;;;;;;;;10336181;28;20448;-21
2021/07/15 13:10:07;;;;;;;0.20;0.10;;;;;;;;;;10343489;28;20069;-22
2021/07/15 13:15:11;;;;;;;0.17;0.17;;;;;;;;;;10339399;28;20042;-22
2021/07/15 13:20:16;;;;;;;0.20;0.10;;;;;;;;;;10339579;28;20422;-22
2021/07/15 13:25:23;;;;;;;0.63;0.10;;;;;;;;;;10341635;28;20057;-22
2021/07/15 13:30:26;;;;;;;0.20;0.15;;;;;;;;;;10343375;28;20145;-22
2021/07/15 13:35:30;;;;;;;0.05;0.05;;;;;;;;;;10348720;28;20042;-22
2021/07/15 13:40:34;;;;;;;0.10;0.10;;;;;;;;;;10350607;28;20046;-22
2021/07/15 13:45:38;;;;;;;0.15;0.10;;;;;;;;;;10346760;28;20042;-22
2021/07/15 13:50:43;;;;;;;0.10;0.10;;;;;;;;;;10350990;28;20050;-22
2021/07/15 13:55:46;;;;;;;0.10;0.10;;;;;;;;;;10355015;28;20046;-21
2021/07/15 14:00:50;;;;;;;0.20;0.10;;;;;;;;;;10349322;28;20048;-21
2021/07/15 14:05:56;;;;;;;0.15;0.15;;;;;;;;;;10347375;28;20058;-22
2021/07/15 14:10:59;;;;;;;0.45;0.10;;;;;;;;;;10351646;28;20132;-22
2021/07/15 14:16:02;;;;;;;0.10;0.10;;;;;;;;;;10352408;28;20037;-22
2021/07/15 14:21:07;;;;;;;0.10;0.10;;;;;;;;;;10351976;28;20295;-22
2021/07/15 14:26:10;;;;;;;0.08;0.08;;;;;;;;;;10349970;28;20042;-22
2021/07/15 14:31:13;;;;;;;0.00;0.00;;;;;;;;;;10352227;28;20057;-22
2021/07/15 14:36:17;;;;;;;0.17;0.10;;;;;;;;;;10352482;28;20050;-22
2021/07/15 14:41:20;;;;;;;0.10;0.10;;;;;;;;;;10351146;28;20054;-22
2021/07/15 14:46:22;;;;;;;0.17;0.10;;;;;;;;;;10356405;28;20045;-22
2021/07/15 14:51:27;;;;;;;0.40;0.10;;;;;;;;;;10359798;28;20054;-23
2021/07/15 14:56:29;;;;;;;0.10;0.10;;;;;;;;;;10350213;28;20514;-22
2021/07/15 15:01:32;;;;;;;0.45;0.20;;;;;;;;;;10344612;28;20132;-22
2021/07/15 15:06:36;;;;;;;0.13;0.13;;;;;;;;;;10343303;28;20050;-22
2021/07/15 15:11:39;;;;;;;0.10;0.10;;;;;;;;;;10343719;28;20849;-22
2021/07/15 15:16:42;;;;;;;0.28;0.10;;;;;;;;;;10347021;28;20050;-22
2021/07/15 15:21:46;;;;;;;0.13;0.10;;;;;;;;;;10341315;28;20050;-22
2021/07/15 15:26:49;;;;;;;0.20;0.10;;;;;;;;;;10344318;28;20065;-22
2021/07/15 15:31:52;;;;;;;0.08;0.08;;;;;;;;;;10344031;28;20062;-22
2021/07/15 15:36:56;;;;;;;0.10;0.10;;;;;;;;;;10342008;28;20057;-22
2021/07/15 15:41:59;;;;;;;0.10;0.10;;;;;;;;;;10340889;28;20494;-22
2021/07/15 15:47:03;;;;;;;0.45;0.10;;;;;;;;;;10352395;28;20050;-22
2021/07/15 15:52:09;;;;;;;0.40;0.10;;;;;;;;;;10340550;28;20124;-22
2021/07/15 15:57:11;;;;;;;1.15;0.20;;;;;;;;;;10350761;28;20038;-23
2021/07/15 16:02:15;;;;;;;0.80;0.20;;;;;;;;;;10347161;28;20042;-22
2021/07/15 16:07:20;;;;;;;0.40;0.10;;;;;;;;;;10339200;28;20050;-23
2021/07/15 16:12:24;;;;;;;1.67;0.10;;;;;;;;;;10342406;28;20050;-22
2021/07/15 16:17:28;;;;;;;0.90;0.13;;;;;;;;;;10348557;28;20384;-22
2021/07/15 16:22:32;;;;;;;0.10;0.10;;;;;;;;;;10346393;28;20056;-22
2021/07/15 16:27:34;;;;;;;0.10;0.10;;;;;;;;;;10344368;28;20402;-23
2021/07/15 16:32:39;;;;;;;0.10;0.10;;;;;;;;;;10344743;28;20057;-23
2021/07/15 16:37:45;;;;;;;0.10;0.10;;;;;;;;;;10352027;28;20136;-23
2021/07/15 16:42:48;;;;;;;0.22;0.10;;;;;;;;;;10335631;28;20078;-29
2021/07/15 16:47:51;;;;;;;0.10;0.10;;;;;;;;;;10347190;28;20042;-27
2021/07/15 16:52:56;;;;;;;0.10;0.10;;;;;;;;;;10345340;28;20052;-27
2021/07/15 16:57:58;;;;;;;0.20;0.20;;;;;;;;;;10337364;28;20498;-28
2021/07/15 17:03:01;;;;;;;0.20;0.20;;;;;;;;;;10331449;28;20045;-27
2021/07/15 17:08:06;;;;;;;0.30;0.15;;;;;;;;;;10339142;28;20124;-27
2021/07/15 17:13:09;;;;;;;0.20;0.10;;;;;;;;;;10336658;28;20067;-27
2021/07/15 17:18:13;;;;;;;0.20;0.10;;;;;;;;;;10336654;28;20060;-27
2021/07/15 17:23:18;;;;;;;0.20;0.10;;;;;;;;;;10342420;28;20057;-27
2021/07/15 17:28:21;;;;;;;0.20;0.20;;;;;;;;;;10343409;28;20314;-26
2021/07/15 17:33:24;;;;;;;0.22;0.20;;;;;;;;;;10343886;28;20048;-27
2021/07/15 17:38:28;;;;;;;0.30;0.20;;;;;;;;;;10333927;28;20042;-27
2021/07/15 17:43:30;;;;;;;0.22;0.20;;;;;;;;;;10332607;28;20615;-27
2021/07/15 17:48:33;;;;;;;0.20;0.20;;;;;;;;;;10339719;28;20054;-27
2021/07/15 17:53:37;;;;;;;0.20;0.20;;;;;;;;;;10337850;28;20056;-27
2021/07/15 17:58:40;;;;;;;0.20;0.20;;;;;;;;;;10340502;28;20161;-26
2021/07/15 18:03:43;;;;;;;0.40;0.30;;;;;;;;;;10340376;28;20045;-27
2021/07/15 18:08:47;;;;;;;0.20;0.20;;;;;;;;;;10339072;28;20042;-26
2021/07/15 18:13:50;;;;;;;0.20;0.20;;;;;;;;;;10333005;28;20045;-27
2021/07/15 18:18:53;;;;;;;0.20;0.20;;;;;;;;;;10346689;28;20207;-27
2021/07/15 18:23:59;;;;;;;0.20;0.20;;;;;;;;;;10347144;28;20054;-26
2021/07/15 18:29:03;;;;;;;0.50;0.28;;;;;;;;;;10345978;28;20522;-27
2021/07/15 18:34:05;;;;;;;0.80;0.28;;;;;;;;;;10348356;28;20340;-26
2021/07/15 18:39:10;;;;;;;0.35;0.30;;;;;;;;;;10349230;28;20054;-26
2021/07/15 18:44:15;;;;;;;0.20;0.20;;;;;;;;;;10339769;28;20050;-28
2021/07/15 18:49:18;;;;;;;0.20;0.20;;;;;;;;;;10346639;28;20822;-27
2021/07/15 18:54:22;;;;;;;0.20;0.20;;;;;;;;;;10342486;28;20048;-27
2021/07/15 18:59:24;;;;;;;0.75;0.30;;;;;;;;;;10344908;28;20561;-26
2021/07/15 19:04:28;;;;;;;0.35;0.20;;;;;;;;;;10338256;28;20050;-26
2021/07/15 19:09:32;;;;;;;0.20;0.20;;;;;;;;;;10339648;28;20049;-26
2021/07/15 19:14:35;;;;;;;0.47;0.20;;;;;;;;;;10336476;28;20078;-27
2021/07/15 19:19:38;;;;;;;0.30;0.20;;;;;;;;;;10338789;28;20411;-27
2021/07/15 19:24:43;;;;;;;0.20;0.20;;;;;;;;;;10360150;28;20479;-27
2021/07/15 19:29:45;;;;;;;0.28;0.28;;;;;;;;;;10346606;28;20054;-26
2021/07/15 19:34:48;;;;;;;0.40;0.40;;;;;;;;;;10347496;28;20557;-26
2021/07/15 19:39:55;;;;;;;0.38;0.30;;;;;;;;;;10346853;28;20042;-26
2021/07/15 19:45:01;;;;;;;0.20;0.20;;;;;;;;;;10346830;28;20053;-26
2021/07/15 19:50:05;;;;;;;0.45;0.22;;;;;;;;;;10346165;28;20034;-26
2021/07/15 19:55:10;;;;;;;0.22;0.22;;;;;;;;;;10340740;28;20050;-26
2021/07/15 20:00:13;;;;;;;0.30;0.20;;;;;;;;;;10343869;28;20050;-26
2021/07/15 20:05:17;;;;;;;0.30;0.30;;;;;;;;;;10345612;28;20054;-26
2021/07/15 20:10:23;;;;;;;1.08;0.30;;;;;;;;;;10340172;28;20460;-27
2021/07/15 20:15:27;;;;;;;1.25;0.20;;;;;;;;;;10341359;28;20057;-26
2021/07/15 20:20:35;;;;;;;0.30;0.30;;;;;;;;;;10346429;28;20677;-26
2021/07/15 20:25:39;;;;;;;0.28;0.20;;;;;;;;;;10343382;28;20561;-27
2021/07/15 20:30:42;;;;;;;0.20;0.20;;;;;;;;;;10336840;28;20411;-26
2021/07/15 20:35:45;;;;;;;0.98;0.20;;;;;;;;;;10348268;28;20046;-27
2021/07/15 20:40:49;;;;;;;3.05;0.30;;;;;;;;;;10349759;28;20744;-27
2021/07/15 20:45:52;;;;;;;0.30;0.28;;;;;;;;;;10334010;28;20049;-26
2021/07/15 20:51:15;;;;;;;0.30;0.30;;;;;;;;;;10346851;28;20054;-26
2021/07/15 20:56:20;;;;;;;0.25;0.22;;;;;;;;;;10339088;28;20080;-26
2021/07/15 21:01:23;;;;;;;0.50;0.30;;;;;;;;;;10339001;28;20415;-27
2021/07/15 21:06:26;;;;;;;0.32;0.30;;;;;;;;;;10335419;28;20196;-26
2021/07/15 21:11:30;;;;;;;0.35;0.30;;;;;;;;;;10334862;28;20053;-26
2021/07/15 21:16:33;;;;;;;0.30;0.30;;;;;;;;;;10335862;28;20398;-28
2021/07/15 21:21:36;;;;;;;0.82;0.40;;;;;;;;;;10333113;28;20061;-26
2021/07/15 21:26:40;;;;;;;0.40;0.40;;;;;;;;;;10335788;28;20076;-26
2021/07/15 21:31:44;;;;;;;0.30;0.30;;;;;;;;;;10334991;28;20054;-27
2021/07/15 21:36:47;;;;;;;0.32;0.32;;;;;;;;;;10336780;28;20080;-27
2021/07/15 21:41:51;;;;;;;0.30;0.30;;;;;;;;;;10336014;28;20051;-27
2021/07/15 21:46:55;;;;;;;0.90;0.40;;;;;;;;;;10335071;28;20045;-26
2021/07/15 21:51:57;;;;;;;0.30;0.30;;;;;;;;;;10349494;28;20050;-28
2021/07/15 21:57:03;;;;;;;0.65;0.55;;;;;;;;;;10349365;28;20491;-26
2021/07/15 22:02:06;;;;;;;0.70;0.50;;;;;;;;;;10345872;28;20056;-26
2021/07/15 22:07:09;;;;;;;1.13;0.50;;;;;;;;;;10347578;28;20050;-26
2021/07/15 22:12:13;;;;;;;0.60;0.47;;;;;;;;;;10350288;28;20042;-27
2021/07/15 22:17:16;;;;;;;0.50;0.50;;;;;;;;;;10349195;28;20487;-26
2021/07/15 22:22:18;;;;;;;0.40;0.40;;;;;;;;;;10354765;28;20163;-27
2021/07/15 22:27:23;;;;;;;0.60;0.50;;;;;;;;;;10355694;28;20585;-26
2021/07/15 22:32:26;;;;;;;0.90;0.70;;;;;;;;;;10356343;28;20068;-26
2021/07/15 22:37:28;;;;;;;0.73;0.73;;;;;;;;;;10353556;28;20056;-26
2021/07/15 22:42:32;;;;;;;1.48;0.80;;;;;;;;;;10346920;28;20442;-28
2021/07/15 22:47:35;;;;;;;1.48;0.60;;;;;;;;;;10348281;28;20411;-26
2021/07/15 22:52:38;;;;;;;1.20;0.88;;;;;;;;;;10348280;28;20499;-26
2021/07/15 22:57:42;;;;;;;1.73;0.80;;;;;;;;;;10346092;28;20578;-27
2021/07/15 23:02:45;;;;;;;0.75;0.75;;;;;;;;;;10338911;28;20415;-26
2021/07/15 23:07:49;;;;;;;1.20;0.70;;;;;;;;;;10342136;28;20886;-26
2021/07/15 23:12:53;;;;;;;1.40;0.82;;;;;;;;;;10337121;28;20507;-26
2021/07/15 23:17:56;;;;;;;0.77;0.70;;;;;;;;;;10343746;28;20049;-27
2021/07/15 23:22:59;;;;;;;0.80;0.80;;;;;;;;;;10339883;28;20054;-26
2021/07/15 23:28:04;;;;;;;1.20;1.10;;;;;;;;;;10347191;28;20045;-26
2021/07/15 23:33:06;;;;;;;0.80;0.75;;;;;;;;;;10339766;28;20060;-26
2021/07/15 23:38:09;;;;;;;0.70;0.70;;;;;;;;;;10350584;28;20410;-26
2021/07/15 23:43:13;;;;;;;1.05;0.85;;;;;;;;;;10341626;28;20049;-26
2021/07/15 23:48:18;;;;;;;1.00;0.80;;;;;;;;;;10345792;28;20048;-26
2021/07/15 23:53:20;;;;;;;1.02;0.88;;;;;;;;;;10339847;28;20516;-24
2021/07/15 23:58:25;;;;;;;0.70;0.60;;;;;;;;;;10347548;28;20040;-24
